createdAt,value
2017-12-02T00:01:29.725Z,84.83
2017-12-02T00:03:57.200Z,85.42
2017-12-02T00:06:24.689Z,85.15
2017-12-02T00:08:52.216Z,85.05
2017-12-02T00:11:19.719Z,84.58
2017-12-02T00:13:47.188Z,84.37
2017-12-02T00:16:14.678Z,84.35
2017-12-02T00:18:42.176Z,84.72
2017-12-02T00:21:09.678Z,85.19
2017-12-02T00:23:37.153Z,85.39
2017-12-02T00:26:04.641Z,85.75
2017-12-02T00:28:32.112Z,85.99
2017-12-02T00:30:59.596Z,85.98
2017-12-02T00:33:27.061Z,86.06
2017-12-02T00:35:54.548Z,86.26
2017-12-02T00:38:22.012Z,85.68
2017-12-02T00:40:49.496Z,85.16
2017-12-02T00:43:16.961Z,85.44
2017-12-02T00:45:44.457Z,84.92
2017-12-02T00:48:11.984Z,85.17
2017-12-02T00:50:39.488Z,85.15
2017-12-02T00:53:06.957Z,84.93
2017-12-02T00:55:34.501Z,85.15
2017-12-02T00:58:01.968Z,85.30
2017-12-02T01:00:29.452Z,85.73
2017-12-02T01:02:56.921Z,85.60
2017-12-02T01:05:24.409Z,85.93
2017-12-02T01:07:51.873Z,85.43
2017-12-02T01:10:19.341Z,85.47
2017-12-02T01:12:46.830Z,85.30
2017-12-02T01:15:14.384Z,85.25
2017-12-02T01:17:41.868Z,85.07
2017-12-02T01:20:09.349Z,85.84
2017-12-02T01:22:36.885Z,85.98
2017-12-02T01:25:04.359Z,85.64
2017-12-02T01:27:31.846Z,86.07
2017-12-02T01:29:59.321Z,85.83
2017-12-02T01:32:26.821Z,85.62
2017-12-02T01:34:54.359Z,85.54
2017-12-02T01:37:21.799Z,85.17
2017-12-02T01:39:49.265Z,85.56
2017-12-02T01:42:16.752Z,85.09
2017-12-02T01:44:44.225Z,84.93
2017-12-02T01:47:11.717Z,84.99
2017-12-02T01:49:39.189Z,83.71
2017-12-02T01:52:06.673Z,84.29
2017-12-02T01:54:34.869Z,84.59
2017-12-02T01:57:02.365Z,84.93
2017-12-02T01:59:29.876Z,85.41
2017-12-02T02:01:57.361Z,85.45
2017-12-02T02:04:24.839Z,84.92
2017-12-02T02:06:52.325Z,85.02
2017-12-02T02:09:19.793Z,85.53
2017-12-02T02:11:47.278Z,84.86
2017-12-02T02:14:14.753Z,85.31
2017-12-02T02:16:42.237Z,86.14
2017-12-02T02:19:09.708Z,85.12
2017-12-02T02:21:37.201Z,84.42
2017-12-02T02:24:04.677Z,84.32
2017-12-02T02:26:33.004Z,84.54
2017-12-02T02:29:00.476Z,84.37
2017-12-02T02:31:27.959Z,83.73
2017-12-02T02:33:55.425Z,83.04
2017-12-02T02:36:22.915Z,83.33
2017-12-02T02:38:50.382Z,83.60
2017-12-02T02:41:17.893Z,83.78
2017-12-02T02:43:45.361Z,83.40
2017-12-02T02:46:12.844Z,83.37
2017-12-02T02:48:40.312Z,83.41
2017-12-02T02:51:07.800Z,83.78
2017-12-02T02:53:35.274Z,83.82
2017-12-02T02:56:02.762Z,84.29
2017-12-02T02:58:30.233Z,84.17
2017-12-02T03:00:57.716Z,84.12
2017-12-02T03:03:25.180Z,83.57
2017-12-02T03:05:52.954Z,83.66
2017-12-02T03:08:20.437Z,83.51
2017-12-02T03:10:47.900Z,83.33
2017-12-02T03:13:15.385Z,82.91
2017-12-02T03:15:42.854Z,83.04
2017-12-02T03:18:10.340Z,83.37
2017-12-02T03:20:37.808Z,84.39
2017-12-02T03:23:05.301Z,84.20
2017-12-02T03:25:32.834Z,83.90
2017-12-02T03:28:00.329Z,84.06
2017-12-02T03:30:27.801Z,84.82
2017-12-02T03:32:55.285Z,85.03
2017-12-02T03:35:22.757Z,83.76
2017-12-02T03:37:50.265Z,82.78
2017-12-02T03:40:17.740Z,83.42
2017-12-02T03:42:45.224Z,81.94
2017-12-02T03:45:12.700Z,82.75
2017-12-02T03:47:40.189Z,82.95
2017-12-02T03:50:07.656Z,82.21
2017-12-02T03:52:35.149Z,81.95
2017-12-02T03:55:02.628Z,83.43
2017-12-02T03:57:30.112Z,83.14
2017-12-02T03:59:57.588Z,83.90
2017-12-02T04:02:25.068Z,83.52
2017-12-02T04:04:52.536Z,83.83
2017-12-02T04:07:20.032Z,84.62
2017-12-02T04:09:47.621Z,84.64
2017-12-02T04:12:15.113Z,84.46
2017-12-02T04:14:42.591Z,84.51
2017-12-02T04:17:10.151Z,84.85
2017-12-02T04:19:37.633Z,83.99
2017-12-02T04:22:05.119Z,83.48
2017-12-02T04:24:32.613Z,83.39
2017-12-02T04:27:00.120Z,83.36
2017-12-02T04:29:27.592Z,83.77
2017-12-02T04:31:55.082Z,84.15
2017-12-02T04:34:22.564Z,84.15
2017-12-02T04:36:50.116Z,84.56
2017-12-02T04:39:17.625Z,84.95
2017-12-02T04:41:45.105Z,85.60
2017-12-02T04:44:12.733Z,85.34
2017-12-02T04:46:40.242Z,84.85
2017-12-02T04:49:07.733Z,85.02
2017-12-02T04:51:35.205Z,84.98
2017-12-02T04:54:02.684Z,85.25
2017-12-02T04:56:30.153Z,85.37
2017-12-02T04:58:57.633Z,85.61
2017-12-02T05:01:25.109Z,85.21
2017-12-02T05:03:52.597Z,84.79
2017-12-02T05:06:20.096Z,84.94
2017-12-02T05:08:47.585Z,84.45
2017-12-02T05:11:15.058Z,84.19
2017-12-02T05:13:42.556Z,84.03
2017-12-02T05:16:10.049Z,83.98
2017-12-02T05:18:37.538Z,83.90
2017-12-02T05:21:05.005Z,83.86
2017-12-02T05:23:32.487Z,84.21
2017-12-02T05:25:59.956Z,84.10
2017-12-02T05:28:27.535Z,83.81
2017-12-02T05:30:55.000Z,84.02
2017-12-02T05:33:22.505Z,84.72
2017-12-02T05:35:49.981Z,84.10
2017-12-02T05:38:17.475Z,84.93
2017-12-02T05:40:44.963Z,85.47
2017-12-02T05:43:12.449Z,84.96
2017-12-02T05:45:39.942Z,85.94
2017-12-02T05:48:07.500Z,86.42
2017-12-02T05:50:35.445Z,86.03
2017-12-02T05:53:02.936Z,86.43
2017-12-02T05:55:30.403Z,86.11
2017-12-02T05:57:57.885Z,86.00
2017-12-02T06:00:25.349Z,85.78
2017-12-02T06:02:52.837Z,86.26
2017-12-02T06:05:20.305Z,86.00
2017-12-02T06:07:47.821Z,85.90
2017-12-02T06:10:15.288Z,86.21
2017-12-02T06:12:42.782Z,85.74
2017-12-02T06:15:10.495Z,85.88
2017-12-02T06:17:37.981Z,85.56
2017-12-02T06:20:05.462Z,86.03
2017-12-02T06:22:32.953Z,86.33
2017-12-02T06:25:00.424Z,86.20
2017-12-02T06:27:27.916Z,86.05
2017-12-02T06:29:55.384Z,85.59
2017-12-02T06:32:22.868Z,85.43
2017-12-02T06:34:50.345Z,85.56
2017-12-02T06:37:17.861Z,85.08
2017-12-02T06:39:45.344Z,84.99
2017-12-02T06:42:12.828Z,85.24
2017-12-02T06:44:40.305Z,84.96
2017-12-02T06:47:07.802Z,84.58
2017-12-02T06:49:35.276Z,84.44
2017-12-02T06:52:02.745Z,84.11
2017-12-02T06:54:30.276Z,84.10
2017-12-02T06:56:57.748Z,84.33
2017-12-02T06:59:25.236Z,83.88
2017-12-02T07:01:52.713Z,83.70
2017-12-02T07:04:20.206Z,83.30
2017-12-02T07:06:47.684Z,83.06
2017-12-02T07:09:15.193Z,83.53
2017-12-02T07:11:42.682Z,83.48
2017-12-02T07:14:10.170Z,82.80
2017-12-02T07:16:37.641Z,82.52
2017-12-02T07:19:05.129Z,82.69
2017-12-02T07:21:32.597Z,82.58
2017-12-02T07:24:00.080Z,81.61
2017-12-02T07:26:27.550Z,81.61
2017-12-02T07:28:55.052Z,82.02
2017-12-02T07:31:22.521Z,81.70
2017-12-02T07:33:50.036Z,81.76
2017-12-02T07:36:17.544Z,81.74
2017-12-02T07:38:45.053Z,81.33
2017-12-02T07:41:12.521Z,81.61
2017-12-02T07:43:40.004Z,81.36
2017-12-02T07:46:07.493Z,81.44
2017-12-02T07:48:34.980Z,81.10
2017-12-02T07:51:02.454Z,81.08
2017-12-02T07:53:29.940Z,80.86
2017-12-02T07:55:57.414Z,80.39
2017-12-02T07:58:24.905Z,80.46
2017-12-02T08:00:52.381Z,80.66
2017-12-02T08:03:19.870Z,80.15
2017-12-02T08:05:47.341Z,79.82
2017-12-02T08:08:14.829Z,78.96
2017-12-02T08:10:42.313Z,75.63
2017-12-02T08:13:09.793Z,72.39
2017-12-02T08:15:37.264Z,72.62
2017-12-02T08:18:04.757Z,75.74
2017-12-02T08:20:32.224Z,77.06
2017-12-02T08:22:59.712Z,78.11
2017-12-02T08:25:27.248Z,79.10
2017-12-02T08:27:54.738Z,79.93
2017-12-02T08:30:22.214Z,79.12
2017-12-02T08:32:49.770Z,78.98
2017-12-02T08:35:17.237Z,78.13
2017-12-02T08:37:44.708Z,73.96
2017-12-02T08:40:12.212Z,72.80
2017-12-02T08:42:39.682Z,69.15
2017-12-02T08:45:07.173Z,72.24
2017-12-02T08:47:34.644Z,73.75
2017-12-02T08:50:02.153Z,74.67
2017-12-02T08:52:29.625Z,75.90
2017-12-02T08:54:57.113Z,75.60
2017-12-02T08:57:24.585Z,74.70
2017-12-02T08:59:52.097Z,74.97
2017-12-02T09:02:19.564Z,75.66
2017-12-02T09:04:47.063Z,77.50
2017-12-02T09:07:14.549Z,77.33
2017-12-02T09:09:42.033Z,76.42
2017-12-02T09:12:09.505Z,75.56
2017-12-02T09:14:37.019Z,68.81
2017-12-02T09:17:04.484Z,62.23
2017-12-02T09:19:31.969Z,58.67
2017-12-02T09:21:59.438Z,59.05
2017-12-02T09:24:26.917Z,58.66
2017-12-02T09:26:54.381Z,58.17
2017-12-02T09:29:21.861Z,59.43
2017-12-02T09:31:49.329Z,63.29
2017-12-02T09:34:16.814Z,64.17
2017-12-02T09:36:44.276Z,66.04
2017-12-02T09:39:11.757Z,66.03
2017-12-02T09:41:39.221Z,65.20
2017-12-02T09:44:06.777Z,65.91
2017-12-02T09:46:34.236Z,68.36
2017-12-02T09:49:01.721Z,62.19
2017-12-02T09:51:29.238Z,54.87
2017-12-02T09:53:56.723Z,49.82
2017-12-02T09:56:24.283Z,53.25
2017-12-02T09:58:51.780Z,59.49
2017-12-02T10:01:19.272Z,63.85
2017-12-02T10:03:46.757Z,64.30
2017-12-02T10:06:14.223Z,64.63
2017-12-02T10:08:41.704Z,61.65
2017-12-02T10:11:09.165Z,63.52
2017-12-02T10:13:36.660Z,64.54
2017-12-02T10:16:04.184Z,65.57
2017-12-02T10:18:31.625Z,66.43
2017-12-02T10:20:59.117Z,68.28
2017-12-02T10:23:26.621Z,68.85
2017-12-02T10:25:54.101Z,69.59
2017-12-02T10:28:21.568Z,68.56
2017-12-02T10:30:49.062Z,68.27
2017-12-02T10:33:16.526Z,67.98
2017-12-02T10:35:44.014Z,69.97
2017-12-02T10:38:11.561Z,69.27
2017-12-02T10:40:39.049Z,67.74
2017-12-02T10:43:06.608Z,67.99
2017-12-02T10:45:34.090Z,68.36
2017-12-02T10:48:01.553Z,67.67
2017-12-02T10:50:29.045Z,67.95
2017-12-02T10:52:56.517Z,68.67
2017-12-02T10:55:24.005Z,68.96
2017-12-02T10:57:51.502Z,68.42
2017-12-02T11:00:19.233Z,69.19
2017-12-02T11:02:46.701Z,69.82
2017-12-02T11:05:14.248Z,69.99
2017-12-02T11:07:42.452Z,69.01
2017-12-02T11:10:09.937Z,69.56
2017-12-02T11:12:37.414Z,71.21
2017-12-02T11:15:04.909Z,70.74
2017-12-02T11:17:32.521Z,71.14
2017-12-02T11:20:00.017Z,70.79
2017-12-02T11:22:27.490Z,69.88
2017-12-02T11:24:54.966Z,70.15
2017-12-02T11:27:22.444Z,69.66
2017-12-02T11:29:49.909Z,69.81
2017-12-02T11:32:17.525Z,70.77
2017-12-02T11:34:44.993Z,69.57
2017-12-02T11:37:12.516Z,70.05
2017-12-02T11:39:39.989Z,70.41
2017-12-02T11:42:07.477Z,70.23
2017-12-02T11:44:34.955Z,69.86
2017-12-02T11:47:03.076Z,68.98
2017-12-02T11:49:30.550Z,69.75
2017-12-02T11:51:58.033Z,70.34
2017-12-02T11:54:25.497Z,69.79
2017-12-02T11:56:52.984Z,69.64
2017-12-02T11:59:20.452Z,70.50
2017-12-02T12:01:47.941Z,70.02
2017-12-02T12:04:15.408Z,68.95
2017-12-02T12:06:42.893Z,68.59
2017-12-02T12:09:10.356Z,69.21
2017-12-02T12:11:37.833Z,69.46
2017-12-02T12:14:05.296Z,69.70
2017-12-02T12:16:32.780Z,67.61
2017-12-02T12:19:00.241Z,69.34
2017-12-02T12:21:27.749Z,70.56
2017-12-02T12:23:55.212Z,69.80
2017-12-02T12:26:22.778Z,69.95
2017-12-02T12:28:50.253Z,70.35
2017-12-02T12:31:17.809Z,68.29
2017-12-02T12:33:45.246Z,68.43
2017-12-02T12:36:12.734Z,69.21
2017-12-02T12:38:40.209Z,69.23
2017-12-02T12:41:07.697Z,69.40
2017-12-02T12:43:35.177Z,70.08
2017-12-02T12:46:02.661Z,70.17
2017-12-02T12:48:30.144Z,70.10
2017-12-02T12:50:57.628Z,69.77
2017-12-02T12:53:25.375Z,68.35
2017-12-02T12:55:52.864Z,67.07
2017-12-02T12:58:20.332Z,68.31
2017-12-02T13:00:47.816Z,69.59
2017-12-02T13:03:15.284Z,69.26
2017-12-02T13:05:42.777Z,69.28
2017-12-02T13:08:10.361Z,68.73
2017-12-02T13:10:37.849Z,69.73
2017-12-02T13:13:05.327Z,69.07
2017-12-02T13:15:32.828Z,69.78
2017-12-02T13:18:00.322Z,70.20
2017-12-02T13:20:27.797Z,71.01
2017-12-02T13:22:55.301Z,70.28
2017-12-02T13:25:23.036Z,70.19
2017-12-02T13:27:50.528Z,70.08
2017-12-02T13:30:17.994Z,69.50
2017-12-02T13:32:45.479Z,70.78
2017-12-02T13:35:12.957Z,70.87
2017-12-02T13:37:40.453Z,70.85
2017-12-02T13:40:07.958Z,71.08
2017-12-02T13:42:35.451Z,70.67
2017-12-02T13:45:03.873Z,69.92
2017-12-02T13:47:31.366Z,69.46
2017-12-02T13:49:59.637Z,69.94
2017-12-02T13:52:27.119Z,69.24
2017-12-02T13:54:54.594Z,70.01
2017-12-02T13:57:22.121Z,68.87
2017-12-02T13:59:49.589Z,68.79
2017-12-02T14:02:17.076Z,68.77
2017-12-02T14:04:44.549Z,68.63
2017-12-02T14:07:12.045Z,68.97
2017-12-02T14:09:39.521Z,68.46
2017-12-02T14:12:07.004Z,67.83
2017-12-02T14:14:34.473Z,67.92
2017-12-02T14:17:02.097Z,68.52
2017-12-02T14:19:29.841Z,68.57
2017-12-02T14:21:57.326Z,68.11
2017-12-02T14:24:24.799Z,68.52
2017-12-02T14:26:52.309Z,68.31
2017-12-02T14:29:19.790Z,68.96
2017-12-02T14:31:47.286Z,70.01
2017-12-02T14:34:14.756Z,70.42
2017-12-02T14:36:42.256Z,69.91
2017-12-02T14:39:09.769Z,70.44
2017-12-02T14:41:37.229Z,71.46
2017-12-02T14:44:04.708Z,71.58
2017-12-02T14:46:32.197Z,71.42
2017-12-02T14:48:59.682Z,72.19
2017-12-02T14:51:28.173Z,72.44
2017-12-02T14:53:55.681Z,72.83
2017-12-02T14:56:23.147Z,72.90
2017-12-02T14:58:51.127Z,72.82
2017-12-02T15:01:18.613Z,71.87
2017-12-02T15:03:46.109Z,72.25
2017-12-02T15:06:13.581Z,72.39
2017-12-02T15:08:41.665Z,72.15
2017-12-02T15:11:09.137Z,71.05
2017-12-02T15:13:36.681Z,71.96
2017-12-02T15:16:04.177Z,71.54
2017-12-02T15:18:31.688Z,72.46
2017-12-02T15:20:59.165Z,71.81
2017-12-02T15:23:26.727Z,71.72
2017-12-02T15:25:54.205Z,72.29
2017-12-02T15:28:21.696Z,72.40
2017-12-02T15:30:49.196Z,72.05
2017-12-02T15:33:17.537Z,72.42
2017-12-02T15:35:45.016Z,72.62
2017-12-02T15:38:12.533Z,71.98
2017-12-02T15:40:40.010Z,72.35
2017-12-02T15:43:07.502Z,71.83
2017-12-02T15:45:34.980Z,72.50
2017-12-02T15:48:04.218Z,72.43
2017-12-02T15:50:31.684Z,72.37
2017-12-02T15:52:59.212Z,72.74
2017-12-02T15:55:26.694Z,72.90
2017-12-02T15:57:54.218Z,73.12
2017-12-02T16:00:21.692Z,73.40
2017-12-02T16:02:49.184Z,73.26
2017-12-02T16:05:16.665Z,73.54
2017-12-02T16:07:45.041Z,74.25
2017-12-02T16:10:12.557Z,73.30
2017-12-02T16:12:40.026Z,74.09
2017-12-02T16:15:07.521Z,73.44
2017-12-02T16:17:34.992Z,71.29
2017-12-02T16:20:02.488Z,71.42
2017-12-02T16:22:29.952Z,70.75
2017-12-02T16:24:57.436Z,69.83
2017-12-02T16:27:24.909Z,69.65
2017-12-02T16:29:52.472Z,70.19
2017-12-02T16:32:19.947Z,69.51
2017-12-02T16:34:47.428Z,69.74
2017-12-02T16:37:14.892Z,69.89
2017-12-02T16:39:42.377Z,69.09
2017-12-02T16:42:09.845Z,69.79
2017-12-02T16:44:37.344Z,70.21
2017-12-02T16:47:04.810Z,70.03
2017-12-02T16:49:32.295Z,70.17
2017-12-02T16:51:59.786Z,70.78
2017-12-02T16:54:27.277Z,70.87
2017-12-02T16:56:54.805Z,70.80
2017-12-02T16:59:22.281Z,70.31
2017-12-02T17:01:49.801Z,70.78
2017-12-02T17:04:17.281Z,70.85
2017-12-02T17:06:44.832Z,71.40
2017-12-02T17:09:12.305Z,71.28
2017-12-02T17:11:39.812Z,71.56
2017-12-02T17:14:07.436Z,71.82
2017-12-02T17:16:34.929Z,71.07
2017-12-02T17:19:02.420Z,72.18
2017-12-02T17:21:30.869Z,72.10
2017-12-02T17:23:58.333Z,71.71
2017-12-02T17:26:26.804Z,71.88
2017-12-02T17:28:54.347Z,72.18
2017-12-02T17:31:22.740Z,71.62
2017-12-02T17:33:50.218Z,71.66
2017-12-02T17:36:17.707Z,72.77
2017-12-02T17:38:45.199Z,73.03
2017-12-02T17:41:12.701Z,72.25
2017-12-02T17:43:40.169Z,71.89
2017-12-02T17:46:07.653Z,72.05
2017-12-02T17:48:35.121Z,72.18
2017-12-02T17:51:02.607Z,72.41
2017-12-02T17:53:30.071Z,72.95
2017-12-02T17:55:57.556Z,72.83
2017-12-02T17:58:25.033Z,72.98
2017-12-02T18:00:52.516Z,73.46
2017-12-02T18:03:19.985Z,72.71
2017-12-02T18:05:47.477Z,73.11
2017-12-02T18:08:14.949Z,73.77
2017-12-02T18:10:42.445Z,73.08
2017-12-02T18:13:09.913Z,72.78
2017-12-02T18:15:37.403Z,74.22
2017-12-02T18:18:04.874Z,74.23
2017-12-02T18:20:32.341Z,74.68
2017-12-02T18:22:59.846Z,74.40
2017-12-02T18:25:27.312Z,74.09
2017-12-02T18:27:54.808Z,73.97
2017-12-02T18:30:22.282Z,73.58
2017-12-02T18:32:50.306Z,73.64
2017-12-02T18:35:17.772Z,73.50
2017-12-02T18:37:45.257Z,73.82
2017-12-02T18:40:12.730Z,73.26
2017-12-02T18:42:40.221Z,73.68
2017-12-02T18:45:07.688Z,73.18
2017-12-02T18:47:35.205Z,73.67
2017-12-02T18:50:02.669Z,73.59
2017-12-02T18:52:30.399Z,73.92
2017-12-02T18:54:57.939Z,73.83
2017-12-02T18:57:25.433Z,73.42
2017-12-02T18:59:52.905Z,73.81
2017-12-02T19:02:20.392Z,73.46
2017-12-02T19:04:47.892Z,73.69
2017-12-02T19:07:15.376Z,73.95
2017-12-02T19:09:42.853Z,74.01
2017-12-02T19:12:10.336Z,74.44
2017-12-02T19:14:37.810Z,74.34
2017-12-02T19:17:05.300Z,73.92
2017-12-02T19:19:32.769Z,73.89
2017-12-02T19:22:00.269Z,73.78
2017-12-02T19:24:27.752Z,73.85
2017-12-02T19:26:55.246Z,74.03
2017-12-02T19:29:23.534Z,73.52
2017-12-02T19:31:51.026Z,73.88
2017-12-02T19:34:18.500Z,74.19
2017-12-02T19:36:45.992Z,74.22
2017-12-02T19:39:13.456Z,74.44
2017-12-02T19:41:40.948Z,73.93
2017-12-02T19:44:08.417Z,74.00
2017-12-02T19:46:35.901Z,73.29
2017-12-02T19:49:03.382Z,74.12
2017-12-02T19:51:30.868Z,73.79
2017-12-02T19:53:58.700Z,73.74
2017-12-02T19:56:26.189Z,74.26
2017-12-02T19:58:53.665Z,74.45
2017-12-02T20:01:21.156Z,74.28
2017-12-02T20:03:49.218Z,74.24
2017-12-02T20:06:16.710Z,75.03
2017-12-02T20:08:44.542Z,75.27
2017-12-02T20:11:12.012Z,75.00
2017-12-02T20:13:39.513Z,75.00
2017-12-02T20:16:06.989Z,74.37
2017-12-02T20:18:34.479Z,73.86
2017-12-02T20:21:01.958Z,74.59
2017-12-02T20:23:29.446Z,74.81
2017-12-02T20:25:56.921Z,74.54
2017-12-02T20:28:24.410Z,75.16
2017-12-02T20:30:51.929Z,74.83
2017-12-02T20:33:19.425Z,74.24
2017-12-02T20:35:46.908Z,73.87
2017-12-02T20:38:14.398Z,74.20
2017-12-02T20:40:41.864Z,74.52
2017-12-02T20:43:09.349Z,73.34
2017-12-02T20:45:36.820Z,73.85
2017-12-02T20:48:04.302Z,73.82
2017-12-02T20:50:31.765Z,73.28
2017-12-02T20:52:59.255Z,72.93
2017-12-02T20:55:26.721Z,72.47
2017-12-02T20:57:54.217Z,72.44
2017-12-02T21:00:21.684Z,71.97
2017-12-02T21:02:49.172Z,71.69
2017-12-02T21:05:16.637Z,71.68
2017-12-02T21:07:44.159Z,72.16
2017-12-02T21:10:11.645Z,71.94
2017-12-02T21:12:39.137Z,71.29
2017-12-02T21:15:06.609Z,71.88
2017-12-02T21:17:34.092Z,71.49
2017-12-02T21:20:01.560Z,71.36
2017-12-02T21:22:29.053Z,71.90
2017-12-02T21:24:56.524Z,71.51
2017-12-02T21:27:24.371Z,71.54
2017-12-02T21:29:51.850Z,72.11
2017-12-02T21:32:19.348Z,71.98
2017-12-02T21:34:46.821Z,71.50
2017-12-02T21:37:14.313Z,71.88
2017-12-02T21:39:41.797Z,71.61
2017-12-02T21:42:09.633Z,71.62
2017-12-02T21:44:37.112Z,71.72
2017-12-02T21:47:04.609Z,72.00
2017-12-02T21:49:32.082Z,72.14
2017-12-02T21:51:59.607Z,71.32
2017-12-02T21:54:27.077Z,72.06
2017-12-02T21:56:54.558Z,72.06
2017-12-02T21:59:22.045Z,72.51
2017-12-02T22:01:49.513Z,72.21
2017-12-02T22:04:17.001Z,71.39
2017-12-02T22:06:44.804Z,70.99
2017-12-02T22:09:12.284Z,70.45
2017-12-02T22:11:39.760Z,69.71
2017-12-02T22:14:07.249Z,70.43
2017-12-02T22:16:34.717Z,69.75
2017-12-02T22:19:02.202Z,70.32
2017-12-02T22:21:29.685Z,69.82
2017-12-02T22:23:57.181Z,69.67
2017-12-02T22:26:24.717Z,69.93
2017-12-02T22:28:52.233Z,70.83
2017-12-02T22:31:19.700Z,71.33
2017-12-02T22:33:47.188Z,70.55
2017-12-02T22:36:14.675Z,69.45
2017-12-02T22:38:42.171Z,69.11
2017-12-02T22:41:09.641Z,69.21
2017-12-02T22:43:37.132Z,69.46
2017-12-02T22:46:04.598Z,70.14
2017-12-02T22:48:32.082Z,69.26
2017-12-02T22:50:59.553Z,68.94
2017-12-02T22:53:27.053Z,68.90
2017-12-02T22:55:54.520Z,68.52
2017-12-02T22:58:23.103Z,69.24
2017-12-02T23:00:50.576Z,69.69
2017-12-02T23:03:18.068Z,70.37
2017-12-02T23:05:45.548Z,70.96
2017-12-02T23:08:13.044Z,70.61
2017-12-02T23:10:40.524Z,70.26
2017-12-02T23:13:08.017Z,69.09
2017-12-02T23:15:35.517Z,68.31
2017-12-02T23:18:03.002Z,68.96
2017-12-02T23:20:30.470Z,68.87
2017-12-02T23:22:57.960Z,68.65
2017-12-02T23:25:25.432Z,68.95
2017-12-02T23:27:52.921Z,69.41
2017-12-02T23:30:20.405Z,69.91
2017-12-02T23:32:47.888Z,69.21
2017-12-02T23:35:15.373Z,69.77
2017-12-02T23:37:42.892Z,70.07
2017-12-02T23:40:10.369Z,70.17
2017-12-02T23:42:37.861Z,70.87
2017-12-02T23:45:05.332Z,70.82
2017-12-02T23:47:32.805Z,71.18
2017-12-02T23:50:00.289Z,71.73
2017-12-02T23:52:27.760Z,71.92
2017-12-02T23:54:55.264Z,71.93
2017-12-02T23:57:22.736Z,72.52
2017-12-02T23:59:50.221Z,72.36
